createdAt,value
2016-07-20T00:00:16.815Z,7.94
2016-07-20T00:00:46.831Z,7.96
2016-07-20T00:01:16.844Z,50.78
2016-07-20T00:01:46.862Z,52.11
2016-07-20T00:02:16.875Z,23.56
2016-07-20T00:02:46.891Z,21.51
2016-07-20T00:03:16.908Z,23.75
2016-07-20T00:03:46.923Z,24.08
2016-07-20T00:04:16.937Z,23.88
2016-07-20T00:04:46.955Z,22.83
2016-07-20T00:05:16.970Z,43.68
2016-07-20T00:05:46.984Z,46.6
2016-07-20T00:06:16.998Z,8.55
2016-07-20T00:06:47.015Z,9.19
2016-07-20T00:07:17.030Z,9.14
2016-07-20T00:07:47.045Z,9.21
2016-07-20T00:08:17.060Z,8.54
2016-07-20T00:08:47.074Z,8.53
2016-07-20T00:09:17.091Z,8.54
2016-07-20T00:09:47.105Z,8.53
2016-07-20T00:10:17.121Z,9.2
2016-07-20T00:10:47.137Z,8.54
2016-07-20T00:11:17.151Z,9.21
2016-07-20T00:11:47.168Z,9.52
2016-07-20T00:12:17.182Z,8.56
2016-07-20T00:12:47.196Z,9.19
2016-07-20T00:13:17.214Z,9.21
2016-07-20T00:13:47.229Z,9.1
2016-07-20T00:14:17.251Z,9.06
2016-07-20T00:14:47.259Z,8.54
2016-07-20T00:15:17.275Z,8.52
2016-07-20T00:15:47.290Z,8.49
2016-07-20T00:16:17.304Z,8.57
2016-07-20T00:16:47.320Z,8.93
2016-07-20T00:17:17.336Z,9.13
2016-07-20T00:17:47.349Z,9.13
2016-07-20T00:18:17.366Z,41.28
2016-07-20T00:18:47.381Z,8.55
2016-07-20T00:19:17.398Z,8.53
2016-07-20T00:19:47.411Z,8.51
2016-07-20T00:20:17.426Z,8.53
2016-07-20T00:20:47.441Z,8.57
2016-07-20T00:21:17.458Z,8.51
2016-07-20T00:21:47.471Z,8.5
2016-07-20T00:22:17.487Z,8.52
2016-07-20T00:22:47.501Z,8.51
2016-07-20T00:23:17.522Z,8.39
2016-07-20T00:23:47.532Z,8.31
2016-07-20T00:24:17.553Z,8.27
2016-07-20T00:24:47.563Z,9.19
2016-07-20T00:25:17.581Z,8.63
2016-07-20T00:25:47.595Z,8.19
2016-07-20T00:26:17.608Z,8.15
2016-07-20T00:26:47.624Z,8.55
2016-07-20T00:27:17.643Z,7.98
2016-07-20T00:27:47.656Z,7.93
2016-07-20T00:28:17.674Z,7.93
2016-07-20T00:28:47.689Z,7.94
2016-07-20T00:29:17.702Z,8.53
2016-07-20T00:29:47.716Z,7.93
2016-07-20T00:30:17.733Z,7.95
2016-07-20T00:30:47.748Z,8.55
2016-07-20T00:31:17.762Z,7.92
2016-07-20T00:31:47.776Z,43.22
2016-07-20T00:32:17.795Z,43.25
2016-07-20T00:32:47.808Z,24.78
2016-07-20T00:33:17.822Z,23.66
2016-07-20T00:33:47.840Z,21.64
2016-07-20T00:34:17.855Z,23.76
2016-07-20T00:34:47.869Z,23.95
2016-07-20T00:35:17.883Z,21.02
2016-07-20T00:35:47.900Z,52.14
2016-07-20T00:36:17.915Z,46.47
2016-07-20T00:36:47.931Z,8.55
2016-07-20T00:37:17.949Z,8.55
2016-07-20T00:37:47.961Z,9.2
2016-07-20T00:38:17.977Z,8.56
2016-07-20T00:38:47.991Z,8.55
2016-07-20T00:39:18.008Z,8.57
2016-07-20T00:39:48.021Z,8.56
2016-07-20T00:40:18.041Z,8.5
2016-07-20T00:40:48.052Z,9.15
2016-07-20T00:41:18.069Z,9.05
2016-07-20T00:41:48.083Z,8.56
2016-07-20T00:42:18.099Z,9.2
2016-07-20T00:42:48.114Z,8.56
2016-07-20T00:43:18.128Z,8.55
2016-07-20T00:43:48.149Z,8.99
2016-07-20T00:44:18.159Z,8.57
2016-07-20T00:44:48.175Z,8.97
2016-07-20T00:45:18.190Z,8.55
2016-07-20T00:45:48.204Z,9.56
2016-07-20T00:46:18.221Z,8.91
2016-07-20T00:46:48.234Z,8.58
2016-07-20T00:47:18.252Z,8.85
2016-07-20T00:47:48.267Z,8.51
2016-07-20T00:48:18.282Z,8.72
2016-07-20T00:48:48.298Z,8.57
2016-07-20T00:49:18.311Z,8.56
2016-07-20T00:49:48.327Z,8.55
2016-07-20T00:50:18.342Z,9.35
2016-07-20T00:50:48.357Z,8.52
2016-07-20T00:51:18.372Z,8.55
2016-07-20T00:51:48.386Z,8.5
2016-07-20T00:52:18.405Z,8.54
2016-07-20T00:52:48.418Z,8.54
2016-07-20T00:53:18.434Z,8.55
2016-07-20T00:53:48.450Z,8.42
2016-07-20T00:54:18.465Z,8.34
2016-07-20T00:54:48.479Z,8.3
2016-07-20T00:55:18.494Z,8.28
2016-07-20T00:55:48.514Z,9.04
2016-07-20T00:56:18.525Z,8.4
2016-07-20T00:56:48.545Z,8.16
2016-07-20T00:57:18.556Z,8.12
2016-07-20T00:57:48.573Z,8.14
2016-07-20T00:58:18.586Z,8.54
2016-07-20T00:58:48.604Z,8.37
2016-07-20T00:59:18.615Z,7.92
2016-07-20T00:59:48.632Z,7.91
2016-07-20T01:00:18.647Z,9.18
2016-07-20T01:00:48.666Z,7.93
2016-07-20T01:01:18.677Z,7.9
2016-07-20T01:01:48.697Z,8
2016-07-20T01:02:18.708Z,50.37
2016-07-20T01:02:48.725Z,50.52
2016-07-20T01:03:18.744Z,51.23
2016-07-20T01:03:48.756Z,23.59
2016-07-20T01:04:18.770Z,23.75
2016-07-20T01:04:48.786Z,21.65
2016-07-20T01:05:18.799Z,23.76
2016-07-20T01:05:48.815Z,22.9
2016-07-20T01:06:18.828Z,23.02
2016-07-20T01:06:48.845Z,52.16
2016-07-20T01:07:18.859Z,55.18
2016-07-20T01:07:48.886Z,9.17
2016-07-20T01:08:18.889Z,8.53
2016-07-20T01:08:48.907Z,8.54
2016-07-20T01:09:18.921Z,8.54
2016-07-20T01:09:48.935Z,8.55
2016-07-20T01:10:18.951Z,9.19
2016-07-20T01:10:48.966Z,8.52
2016-07-20T01:11:18.982Z,8.55
2016-07-20T01:11:48.996Z,9.17
2016-07-20T01:12:19.011Z,9.18
2016-07-20T01:12:49.029Z,9.17
2016-07-20T01:13:19.044Z,9.17
2016-07-20T01:13:49.059Z,9.15
2016-07-20T01:14:19.072Z,8.52
2016-07-20T01:14:49.089Z,8.55
2016-07-20T01:15:19.104Z,9.37
2016-07-20T01:15:49.120Z,8.97
2016-07-20T01:16:19.134Z,8.96
2016-07-20T01:16:49.149Z,8.97
2016-07-20T01:17:19.165Z,8.91
2016-07-20T01:17:49.179Z,8.69
2016-07-20T01:18:19.196Z,8.53
2016-07-20T01:18:49.210Z,8.75
2016-07-20T01:19:19.225Z,8.52
2016-07-20T01:19:49.239Z,8.52
2016-07-20T01:20:19.255Z,8.55
2016-07-20T01:20:49.271Z,8.59
2016-07-20T01:21:19.287Z,8.51
2016-07-20T01:21:49.302Z,8.5
2016-07-20T01:22:19.315Z,8.53
2016-07-20T01:22:49.331Z,8.52
2016-07-20T01:23:19.347Z,8.53
2016-07-20T01:23:49.363Z,8.52
2016-07-20T01:24:19.376Z,8.43
2016-07-20T01:24:49.392Z,8.38
2016-07-20T01:25:19.412Z,8.7
2016-07-20T01:25:49.422Z,8.54
2016-07-20T01:26:19.436Z,8.26
2016-07-20T01:26:49.452Z,8.19
2016-07-20T01:27:19.473Z,8.11
2016-07-20T01:27:49.484Z,8.12
2016-07-20T01:28:19.497Z,9.07
2016-07-20T01:28:49.512Z,7.95
2016-07-20T01:29:19.529Z,7.95
2016-07-20T01:29:49.543Z,8.09
2016-07-20T01:30:19.558Z,8.23
2016-07-20T01:30:49.574Z,7.9
2016-07-20T01:31:19.588Z,7.93
2016-07-20T01:31:49.605Z,7.93
2016-07-20T01:32:19.620Z,8.2
2016-07-20T01:32:49.635Z,9.19
2016-07-20T01:33:19.650Z,42.23
2016-07-20T01:33:49.665Z,42.36
2016-07-20T01:34:19.681Z,24.27
2016-07-20T01:34:49.695Z,23.56
2016-07-20T01:35:19.710Z,24.9
2016-07-20T01:35:49.726Z,23.72
2016-07-20T01:36:19.742Z,21.81
2016-07-20T01:36:49.757Z,22.85
2016-07-20T01:37:19.773Z,52.04
2016-07-20T01:37:49.787Z,56.42
2016-07-20T01:38:19.800Z,8.51
2016-07-20T01:38:49.816Z,8.51
2016-07-20T01:39:19.832Z,8.52
2016-07-20T01:39:49.848Z,8.61
2016-07-20T01:40:19.862Z,8.52
2016-07-20T01:40:49.877Z,8.68
2016-07-20T01:41:19.896Z,8.53
2016-07-20T01:41:49.913Z,8.55
2016-07-20T01:42:19.921Z,8.5
2016-07-20T01:42:49.937Z,8.55
2016-07-20T01:43:19.952Z,9.93
2016-07-20T01:43:49.969Z,8.51
2016-07-20T01:44:19.987Z,9.16
2016-07-20T01:44:49.999Z,8.53
2016-07-20T01:45:20.018Z,8.58
2016-07-20T01:45:50.028Z,8.52
2016-07-20T01:46:20.048Z,8.52
2016-07-20T01:46:50.060Z,8.52
2016-07-20T01:47:20.080Z,8.55
2016-07-20T01:47:50.090Z,8.88
2016-07-20T01:48:20.105Z,8.53
2016-07-20T01:48:50.119Z,8.84
2016-07-20T01:49:20.136Z,8.78
2016-07-20T01:49:50.149Z,8.55
2016-07-20T01:50:20.166Z,8.5
2016-07-20T01:50:50.180Z,8.56
2016-07-20T01:51:20.199Z,9.78
2016-07-20T01:51:50.209Z,8.56
2016-07-20T01:52:20.226Z,8.52
2016-07-20T01:52:50.239Z,9.19
2016-07-20T01:53:20.258Z,8.52
2016-07-20T01:53:50.270Z,8.53
2016-07-20T01:54:20.285Z,8.66
2016-07-20T01:54:50.301Z,8.55
2016-07-20T01:55:20.317Z,8.78
2016-07-20T01:55:50.333Z,8.32
2016-07-20T01:56:20.349Z,8.26
2016-07-20T01:56:50.360Z,8.5
2016-07-20T01:57:20.377Z,8.21
2016-07-20T01:57:50.396Z,8.48
2016-07-20T01:58:20.406Z,8.2
2016-07-20T01:58:50.432Z,8.12
2016-07-20T01:59:20.440Z,8
2016-07-20T01:59:50.453Z,7.92
2016-07-20T02:00:20.468Z,8.24
2016-07-20T02:00:50.482Z,8.26
2016-07-20T02:01:20.501Z,7.91
2016-07-20T02:01:50.512Z,8.51
2016-07-20T02:02:20.530Z,7.91
2016-07-20T02:02:50.544Z,8.55
2016-07-20T02:03:20.558Z,8.13
2016-07-20T02:03:50.573Z,7.9
2016-07-20T02:04:20.589Z,50.32
2016-07-20T02:05:20.620Z,62.47
2016-07-20T02:05:50.634Z,19.68
2016-07-20T02:06:20.651Z,23.71
2016-07-20T02:06:50.665Z,25.14
2016-07-20T02:07:20.681Z,22.7
2016-07-20T02:07:50.697Z,22.91
2016-07-20T02:08:20.710Z,52.26
2016-07-20T02:08:50.725Z,55.58
2016-07-20T02:09:20.742Z,8.5
2016-07-20T02:09:50.755Z,8.52
2016-07-20T02:10:20.770Z,8.54
2016-07-20T02:10:50.786Z,9.1
2016-07-20T02:11:20.801Z,8.54
2016-07-20T02:11:50.815Z,8.76
2016-07-20T02:12:20.833Z,8.55
2016-07-20T02:12:50.846Z,8.51
2016-07-20T02:13:20.860Z,8.52
2016-07-20T02:13:50.877Z,8.53
2016-07-20T02:14:20.893Z,8.52
2016-07-20T02:14:50.907Z,8.48
2016-07-20T02:15:20.924Z,8.5
2016-07-20T02:15:50.938Z,8.55
2016-07-20T02:16:20.952Z,8.52
2016-07-20T02:16:50.969Z,8.58
2016-07-20T02:17:20.983Z,8.49
2016-07-20T02:17:50.997Z,8.49
2016-07-20T02:18:21.014Z,8.94
2016-07-20T02:18:51.029Z,8.5
2016-07-20T02:19:21.043Z,8.52
2016-07-20T02:19:51.059Z,9.11
2016-07-20T02:20:21.073Z,8.52
2016-07-20T02:20:51.089Z,9.15
2016-07-20T02:21:21.104Z,8.54
2016-07-20T02:21:51.119Z,8.53
2016-07-20T02:22:21.134Z,8.55
2016-07-20T02:22:51.150Z,8.64
2016-07-20T02:23:21.163Z,8.5
2016-07-20T02:23:51.179Z,8.48
2016-07-20T02:24:21.195Z,8.49
2016-07-20T02:24:51.209Z,8.5
2016-07-20T02:25:21.223Z,8.49
2016-07-20T02:25:51.240Z,8.53
2016-07-20T02:26:21.254Z,8.53
2016-07-20T02:26:51.270Z,8.49
2016-07-20T02:27:21.285Z,8.28
2016-07-20T02:27:51.299Z,8.25
2016-07-20T02:28:21.315Z,8.25
2016-07-20T02:28:51.330Z,39.2
2016-07-20T02:29:21.345Z,8.51
2016-07-20T02:29:51.361Z,8.06
2016-07-20T02:30:21.375Z,8.07
2016-07-20T02:30:51.389Z,8.54
2016-07-20T02:31:21.406Z,8.51
2016-07-20T02:31:51.421Z,8.49
2016-07-20T02:32:21.436Z,7.91
2016-07-20T02:32:51.456Z,7.9
2016-07-20T02:33:21.468Z,7.92
2016-07-20T02:33:51.485Z,7.92
2016-07-20T02:34:21.496Z,8.65
2016-07-20T02:34:51.510Z,51.03
2016-07-20T02:35:21.526Z,50.86
2016-07-20T02:35:51.542Z,42.45
2016-07-20T02:36:21.556Z,23.35
2016-07-20T02:36:51.576Z,21.54
2016-07-20T02:37:21.587Z,23.74
2016-07-20T02:37:51.601Z,22.02
2016-07-20T02:38:21.618Z,22.7
2016-07-20T02:38:51.632Z,51.77
2016-07-20T02:39:21.648Z,43.85
2016-07-20T02:39:51.667Z,38.65
2016-07-20T02:40:21.679Z,8.45
2016-07-20T02:40:51.694Z,8.5
2016-07-20T02:41:21.708Z,8.48
2016-07-20T02:41:51.723Z,8.54
2016-07-20T02:42:21.738Z,8.51
2016-07-20T02:42:51.754Z,8.49
2016-07-20T02:43:21.770Z,8.54
2016-07-20T02:43:51.787Z,8.49
2016-07-20T02:44:21.798Z,8.51
2016-07-20T02:44:51.816Z,8.48
2016-07-20T02:45:21.830Z,8.5
2016-07-20T02:45:51.843Z,8.51
2016-07-20T02:46:21.860Z,8.53
2016-07-20T02:46:51.877Z,8.51
2016-07-20T02:47:21.889Z,8.52
2016-07-20T02:47:51.905Z,8.53
2016-07-20T02:48:21.920Z,8.55
2016-07-20T02:48:51.938Z,8.49
2016-07-20T02:49:21.948Z,8.53
2016-07-20T02:49:51.965Z,8.53
2016-07-20T02:50:21.980Z,8.52
2016-07-20T02:50:51.997Z,8.77
2016-07-20T02:51:22.011Z,8.54
2016-07-20T02:51:52.033Z,8.52
2016-07-20T02:52:22.041Z,8.56
2016-07-20T02:52:52.055Z,8.55
2016-07-20T02:53:22.074Z,8.97
2016-07-20T02:53:52.088Z,8.48
2016-07-20T02:54:22.102Z,8.64
2016-07-20T02:54:52.123Z,8.53
2016-07-20T02:55:22.132Z,8.53
2016-07-20T02:55:52.147Z,8.54
2016-07-20T02:56:22.162Z,8.51
2016-07-20T02:56:52.176Z,8.5
2016-07-20T02:57:22.193Z,8.54
2016-07-20T02:57:52.211Z,8.28
2016-07-20T02:58:22.221Z,8.23
2016-07-20T02:58:52.236Z,8.24
2016-07-20T02:59:22.253Z,8.15
2016-07-20T02:59:52.273Z,8.17
2016-07-20T03:00:22.290Z,8.04
2016-07-20T03:00:52.302Z,8.47
2016-07-20T03:01:22.313Z,7.95
2016-07-20T03:01:52.333Z,7.9
2016-07-20T03:02:22.343Z,7.9
2016-07-20T03:02:52.361Z,7.88
2016-07-20T03:03:52.393Z,8.47
2016-07-20T03:04:22.405Z,7.9
2016-07-20T03:04:52.423Z,9.3
2016-07-20T03:05:22.434Z,8.67
2016-07-20T03:05:52.452Z,41.87
2016-07-20T03:06:22.464Z,51.08
2016-07-20T03:06:52.482Z,21.3
2016-07-20T03:07:22.495Z,23.69
2016-07-20T03:07:52.513Z,23.47
2016-07-20T03:08:22.525Z,24.82
2016-07-20T03:08:52.542Z,23.7
2016-07-20T03:09:22.554Z,22.84
2016-07-20T03:09:52.569Z,51.45
2016-07-20T03:10:22.586Z,43.5
2016-07-20T03:10:52.607Z,55.04
2016-07-20T03:11:22.615Z,8.45
2016-07-20T03:11:52.633Z,9.07
2016-07-20T03:12:22.645Z,8.52
2016-07-20T03:12:52.663Z,10.25
2016-07-20T03:13:22.676Z,8.44
2016-07-20T03:13:52.695Z,9.5
2016-07-20T03:14:22.707Z,8.43
2016-07-20T03:14:52.723Z,8.67
2016-07-20T03:15:22.734Z,9.09
2016-07-20T03:15:52.750Z,8.46
2016-07-20T03:16:22.765Z,9.1
2016-07-20T03:16:52.782Z,9.1
2016-07-20T03:17:22.797Z,9.08
2016-07-20T03:17:52.813Z,8.43
2016-07-20T03:18:22.828Z,8.46
2016-07-20T03:18:52.843Z,8.46
2016-07-20T03:19:22.856Z,8.88
2016-07-20T03:19:52.870Z,9.29
2016-07-20T03:20:22.888Z,9.11
2016-07-20T03:20:52.908Z,8.74
2016-07-20T03:21:22.918Z,8.75
2016-07-20T03:21:52.932Z,8.5
2016-07-20T03:22:22.946Z,8.46
2016-07-20T03:22:52.965Z,8.6
2016-07-20T03:23:22.978Z,8.43
2016-07-20T03:23:52.995Z,8.43
2016-07-20T03:24:23.008Z,8.45
2016-07-20T03:24:53.023Z,8.44
2016-07-20T03:25:23.038Z,8.43
2016-07-20T03:25:53.054Z,8.46
2016-07-20T03:26:23.070Z,8.46
2016-07-20T03:26:53.085Z,8.45
2016-07-20T03:27:23.098Z,8.77
2016-07-20T03:27:53.113Z,8.41
2016-07-20T03:28:23.129Z,8.25
2016-07-20T03:28:53.143Z,8.35
2016-07-20T03:29:23.159Z,8.43
2016-07-20T03:29:53.175Z,8.14
2016-07-20T03:30:23.189Z,8.11
2016-07-20T03:30:53.204Z,8.11
2016-07-20T03:31:23.221Z,7.98
2016-07-20T03:31:53.235Z,8.38
2016-07-20T03:32:23.250Z,7.85
2016-07-20T03:32:53.265Z,7.8
2016-07-20T03:33:23.280Z,7.81
2016-07-20T03:33:53.295Z,7.8
2016-07-20T03:34:23.310Z,7.83
2016-07-20T03:34:53.327Z,9.03
2016-07-20T03:35:23.341Z,8.38
2016-07-20T03:35:53.356Z,7.8
2016-07-20T03:36:23.371Z,8.39
2016-07-20T03:36:53.388Z,49.79
2016-07-20T03:37:23.401Z,34.45
2016-07-20T03:37:53.421Z,21.21
2016-07-20T03:38:23.432Z,23.34
2016-07-20T03:38:53.446Z,23.25
2016-07-20T03:39:23.461Z,23.56
2016-07-20T03:39:53.476Z,23.38
2016-07-20T03:40:23.492Z,20.72
2016-07-20T03:40:53.507Z,43
2016-07-20T03:41:23.534Z,45.44
2016-07-20T03:41:53.537Z,8.35
2016-07-20T03:42:23.552Z,8.31
2016-07-20T03:42:53.569Z,8.34
2016-07-20T03:43:23.582Z,8.32
2016-07-20T03:43:53.598Z,8.33
2016-07-20T03:44:23.613Z,8.33
2016-07-20T03:44:53.625Z,8.31
2016-07-20T03:45:23.644Z,8.36
2016-07-20T03:45:53.658Z,8.94
2016-07-20T03:46:23.673Z,8.28
2016-07-20T03:46:53.690Z,8.3
2016-07-20T03:47:23.704Z,8.45
2016-07-20T03:47:53.719Z,8.29
2016-07-20T03:48:23.734Z,8.27
2016-07-20T03:48:53.749Z,8.86
2016-07-20T03:49:23.764Z,8.32
2016-07-20T03:49:53.780Z,8.31
2016-07-20T03:50:23.796Z,8.22
2016-07-20T03:50:53.809Z,8.37
2016-07-20T03:51:23.824Z,8.31
2016-07-20T03:51:53.843Z,8.15
2016-07-20T03:52:23.854Z,8.19
2016-07-20T03:52:53.870Z,8.53
2016-07-20T03:53:23.886Z,8.41
2016-07-20T03:53:53.903Z,8.88
2016-07-20T03:54:23.915Z,7.98
2016-07-20T03:54:53.931Z,7.9
2016-07-20T03:55:23.945Z,7.98
2016-07-20T03:55:53.962Z,8.05
2016-07-20T03:56:23.976Z,8.15
2016-07-20T03:56:53.990Z,9.1
2016-07-20T03:57:24.006Z,8.17
2016-07-20T03:57:54.022Z,8.8
2016-07-20T03:58:24.042Z,8.27
2016-07-20T03:58:54.053Z,7.99
2016-07-20T03:59:24.066Z,8.25
2016-07-20T03:59:54.081Z,8.35
2016-07-20T04:00:24.101Z,8.25
2016-07-20T04:00:54.114Z,13.63
2016-07-20T04:01:24.130Z,21.07
2016-07-20T04:01:54.143Z,19.68
2016-07-20T04:02:24.156Z,12.74
2016-07-20T04:02:54.171Z,10.34
2016-07-20T04:03:24.192Z,17.75
2016-07-20T04:03:54.201Z,27.18
2016-07-20T04:04:24.218Z,19.05
2016-07-20T04:04:54.233Z,11.83
2016-07-20T04:05:54.263Z,2.2
2016-07-20T04:06:24.278Z,6.79
2016-07-20T04:06:54.294Z,8.21
2016-07-20T04:07:24.308Z,7.36
2016-07-20T04:07:54.325Z,50.53
2016-07-20T04:08:24.340Z,41.1
2016-07-20T04:08:54.354Z,22.33
2016-07-20T04:09:24.370Z,23.25
2016-07-20T04:09:54.385Z,22.36
2016-07-20T04:10:24.402Z,23.82
2016-07-20T04:10:54.415Z,21.66
2016-07-20T04:11:24.430Z,50.25
2016-07-20T04:11:54.447Z,50.25
2016-07-20T04:12:24.462Z,44.31
2016-07-20T04:12:54.475Z,8.03
2016-07-20T04:13:24.492Z,8.05
2016-07-20T04:13:54.505Z,8.03
2016-07-20T04:14:24.526Z,8.04
2016-07-20T04:14:54.537Z,8.05
2016-07-20T04:15:24.551Z,8.78
2016-07-20T04:15:54.566Z,8.03
2016-07-20T04:16:24.588Z,8.04
2016-07-20T04:16:54.598Z,8.05
2016-07-20T04:17:24.616Z,8.64
2016-07-20T04:17:54.628Z,8.01
2016-07-20T04:18:24.647Z,8.05
2016-07-20T04:18:54.657Z,8.02
2016-07-20T04:19:24.675Z,8.58
2016-07-20T04:19:54.688Z,8.02
2016-07-20T04:20:24.707Z,8.67
2016-07-20T04:20:54.718Z,8.01
2016-07-20T04:21:24.736Z,8.05
2016-07-20T04:21:54.750Z,8.11
2016-07-20T04:22:24.766Z,8.12
2016-07-20T04:22:54.779Z,8.03
2016-07-20T04:23:24.797Z,8.03
2016-07-20T04:23:54.809Z,8.08
2016-07-20T04:24:24.826Z,8.4
2016-07-20T04:24:54.840Z,7.85
2016-07-20T04:25:24.857Z,7.98
2016-07-20T04:25:54.870Z,7.98
2016-07-20T04:26:24.888Z,8.15
2016-07-20T04:26:54.902Z,8.19
2016-07-20T04:27:24.918Z,8.59
2016-07-20T04:27:54.932Z,10.2
2016-07-20T04:28:24.951Z,8.45
2016-07-20T04:28:54.962Z,7.89
2016-07-20T04:29:24.977Z,7.84
2016-07-20T04:29:54.994Z,7.72
2016-07-20T04:30:25.010Z,7.89
2016-07-20T04:30:55.026Z,7.69
2016-07-20T04:31:25.041Z,7.65
2016-07-20T04:31:55.056Z,7.76
2016-07-20T04:32:25.070Z,8.56
2016-07-20T04:32:55.085Z,10.38
2016-07-20T04:33:25.101Z,10.32
2016-07-20T04:33:55.115Z,7.85
2016-07-20T04:34:25.131Z,7.68
2016-07-20T04:34:55.145Z,7.12
2016-07-20T04:35:25.164Z,7.2
2016-07-20T04:35:55.176Z,7.27
2016-07-20T04:36:25.191Z,7.28
2016-07-20T04:36:55.206Z,7.35
2016-07-20T04:37:25.221Z,7.36
2016-07-20T04:37:55.238Z,7.73
2016-07-20T04:38:25.253Z,39.61
2016-07-20T04:38:55.268Z,48.43
2016-07-20T04:39:25.288Z,22.82
2016-07-20T04:39:55.303Z,19.58
2016-07-20T04:40:25.316Z,26.18
2016-07-20T04:40:55.330Z,24.8
2016-07-20T04:41:25.347Z,22.95
2016-07-20T04:41:55.362Z,46.67
2016-07-20T04:42:25.375Z,51.49
2016-07-20T04:42:55.390Z,51.33
2016-07-20T04:43:25.406Z,9.96
2016-07-20T04:43:55.423Z,7.71
2016-07-20T04:44:25.437Z,7.73
2016-07-20T04:44:55.453Z,7.83
2016-07-20T04:45:25.469Z,7.83
2016-07-20T04:45:55.488Z,8.54
2016-07-20T04:46:25.497Z,8.52
2016-07-20T04:46:55.518Z,8.09
2016-07-20T04:47:25.528Z,8.35
2016-07-20T04:47:55.544Z,8.71
2016-07-20T04:48:25.558Z,7.87
2016-07-20T04:48:55.577Z,7.78
2016-07-20T04:49:25.588Z,7.85
2016-07-20T04:49:55.607Z,7.98
2016-07-20T04:50:25.620Z,8.13
2016-07-20T04:50:55.639Z,8.08
2016-07-20T04:51:25.651Z,8
2016-07-20T04:51:55.668Z,7.99
2016-07-20T04:52:25.681Z,8.57
2016-07-20T04:52:55.698Z,9.89
2016-07-20T04:53:25.712Z,10.29
2016-07-20T04:53:55.729Z,8.21
2016-07-20T04:54:25.743Z,7.8
2016-07-20T04:54:55.759Z,8.06
2016-07-20T04:55:25.773Z,8.67
2016-07-20T04:55:55.788Z,9.39
2016-07-20T04:56:25.804Z,9.05
2016-07-20T04:56:55.819Z,9.32
2016-07-20T04:57:25.836Z,9.81
2016-07-20T04:57:55.850Z,8.36
2016-07-20T04:58:25.866Z,8.24
2016-07-20T04:58:55.883Z,7.82
2016-07-20T04:59:25.897Z,7.92
2016-07-20T04:59:55.914Z,8.55
2016-07-20T05:00:25.929Z,7.85
2016-07-20T05:00:55.946Z,7.93
2016-07-20T05:01:25.959Z,8.04
2016-07-20T05:01:55.974Z,7.64
2016-07-20T05:02:25.994Z,7.55
2016-07-20T05:02:56.005Z,7.51
2016-07-20T05:03:26.020Z,7.9
2016-07-20T05:03:56.037Z,7.81
2016-07-20T05:04:26.054Z,7.84
2016-07-20T05:04:56.067Z,8.45
2016-07-20T05:05:26.085Z,7.43
2016-07-20T05:05:56.096Z,7.42
2016-07-20T05:06:26.113Z,7.46
2016-07-20T05:06:56.129Z,7.38
2016-07-20T05:07:26.145Z,8.26
2016-07-20T05:07:56.160Z,7.95
2016-07-20T05:08:26.180Z,7.37
2016-07-20T05:08:56.191Z,48.5
2016-07-20T05:09:26.212Z,48
2016-07-20T05:09:56.221Z,22.2
2016-07-20T05:10:26.240Z,22.28
2016-07-20T05:10:56.252Z,22.8
2016-07-20T05:11:26.269Z,20.44
2016-07-20T05:11:56.285Z,21.68
2016-07-20T05:12:26.300Z,49.4
2016-07-20T05:12:56.314Z,49.51
2016-07-20T05:13:26.330Z,52.74
2016-07-20T05:13:56.345Z,7.96
2016-07-20T05:14:26.360Z,7.98
2016-07-20T05:14:56.377Z,8.57
2016-07-20T05:15:26.392Z,8.51
2016-07-20T05:15:56.407Z,7.91
2016-07-20T05:16:26.422Z,8.5
2016-07-20T05:16:56.437Z,8.58
2016-07-20T05:17:26.454Z,7.95
2016-07-20T05:17:56.470Z,8.65
2016-07-20T05:18:26.484Z,8.32
2016-07-20T05:18:56.500Z,8.04
2016-07-20T05:19:26.515Z,8.65
2016-07-20T05:19:56.531Z,8.55
2016-07-20T05:20:26.548Z,7.95
2016-07-20T05:20:56.566Z,8.13
2016-07-20T05:21:26.579Z,8.05
2016-07-20T05:21:56.595Z,7.97
2016-07-20T05:22:26.613Z,8.54
2016-07-20T05:22:56.625Z,8.05
2016-07-20T05:23:26.639Z,7.98
2016-07-20T05:23:56.660Z,7.94
2016-07-20T05:24:26.671Z,7.92
2016-07-20T05:24:56.690Z,7.97
2016-07-20T05:25:26.702Z,7.96
2016-07-20T05:25:56.717Z,8
2016-07-20T05:26:26.732Z,8
2016-07-20T05:26:56.750Z,7.96
2016-07-20T05:27:26.763Z,8.64
2016-07-20T05:27:56.780Z,7.88
2016-07-20T05:28:26.796Z,8.05
2016-07-20T05:28:56.810Z,7.92
2016-07-20T05:29:26.825Z,8.49
2016-07-20T05:29:56.839Z,7.92
2016-07-20T05:30:26.857Z,7.88
2016-07-20T05:30:56.874Z,9.18
2016-07-20T05:31:26.906Z,8.53
2016-07-20T05:31:56.904Z,7.69
2016-07-20T05:32:26.920Z,8.62
2016-07-20T05:32:56.935Z,7.67
2016-07-20T05:33:26.952Z,7.63
2016-07-20T05:33:56.966Z,7.73
2016-07-20T05:34:26.986Z,7.95
2016-07-20T05:34:56.999Z,7.98
2016-07-20T05:35:27.014Z,7.9
2016-07-20T05:35:57.028Z,8.61
2016-07-20T05:36:27.045Z,7.45
2016-07-20T05:36:57.060Z,7.4
2016-07-20T05:37:27.081Z,7.42
2016-07-20T05:37:57.092Z,7.4
2016-07-20T05:38:27.111Z,7.45
2016-07-20T05:38:57.123Z,49.17
2016-07-20T05:39:27.141Z,48.29
2016-07-20T05:39:57.153Z,22.27
2016-07-20T05:40:27.170Z,20.47
2016-07-20T05:40:57.185Z,22.38
2016-07-20T05:41:27.201Z,20.62
2016-07-20T05:41:57.217Z,21.61
2016-07-20T05:42:27.233Z,49.21
2016-07-20T05:42:57.248Z,53.62
2016-07-20T05:43:27.266Z,8.13
2016-07-20T05:43:57.281Z,8.59
2016-07-20T05:44:27.296Z,9.1
2016-07-20T05:44:57.311Z,8.21
2016-07-20T05:45:27.330Z,8.59
2016-07-20T05:45:57.344Z,8.01
2016-07-20T05:46:27.359Z,8.14
2016-07-20T05:46:57.373Z,8.72
2016-07-20T05:47:27.389Z,8.33
2016-07-20T05:47:57.408Z,8
2016-07-20T05:48:27.420Z,8.04
2016-07-20T05:48:57.443Z,8.03
2016-07-20T05:49:27.451Z,8.94
2016-07-20T05:49:57.468Z,8.08
2016-07-20T05:50:27.484Z,8.01
2016-07-20T05:50:57.503Z,8.05
2016-07-20T05:51:27.514Z,8.47
2016-07-20T05:51:57.531Z,8.14
2016-07-20T05:52:27.547Z,8.12
2016-07-20T05:52:57.562Z,8.25
2016-07-20T05:53:27.578Z,7.94
2016-07-20T05:53:57.594Z,8.31
2016-07-20T05:54:27.611Z,8.1
2016-07-20T05:54:57.626Z,8.97
2016-07-20T05:55:27.642Z,8.27
2016-07-20T05:55:57.657Z,8.09
2016-07-20T05:56:27.672Z,9.09
2016-07-20T05:56:57.689Z,8.35
2016-07-20T05:57:27.704Z,8.16
2016-07-20T05:57:57.720Z,8.44
2016-07-20T05:58:27.738Z,8.19
2016-07-20T05:58:57.753Z,8.6
2016-07-20T05:59:27.773Z,8.34
2016-07-20T05:59:57.784Z,8.1
2016-07-20T06:00:27.803Z,8.18
2016-07-20T06:00:57.814Z,8.3
2016-07-20T06:01:27.833Z,8.1
2016-07-20T06:01:57.848Z,8.17
2016-07-20T06:02:27.864Z,7.88
2016-07-20T06:02:57.878Z,8.06
2016-07-20T06:03:27.897Z,8.34
2016-07-20T06:03:57.911Z,7.9
2016-07-20T06:04:27.927Z,7.69
2016-07-20T06:04:57.942Z,8.41
2016-07-20T06:05:27.959Z,7.72
2016-07-20T06:05:57.972Z,8.59
2016-07-20T06:06:27.990Z,8.56
2016-07-20T06:06:58.009Z,7.94
2016-07-20T06:07:28.019Z,8.05
2016-07-20T06:07:58.036Z,8.04
2016-07-20T06:08:28.053Z,50.01
2016-07-20T06:08:58.073Z,50.21
2016-07-20T06:09:28.084Z,24.14
2016-07-20T06:09:58.100Z,22.5
2016-07-20T06:10:28.116Z,24.23
2016-07-20T06:10:58.130Z,24.44
2016-07-20T06:11:28.147Z,26.1
2016-07-20T06:11:58.164Z,24.22
2016-07-20T06:12:28.179Z,52.62
2016-07-20T06:12:58.193Z,56.01
2016-07-20T06:13:28.213Z,9.31
2016-07-20T06:13:58.227Z,9.4
2016-07-20T06:14:28.242Z,9.41
2016-07-20T06:14:58.259Z,10.77
2016-07-20T06:15:28.272Z,9.49
2016-07-20T06:15:58.290Z,9.77
2016-07-20T06:16:28.313Z,9.06
2016-07-20T06:16:58.323Z,9.24
2016-07-20T06:17:28.338Z,9.7
2016-07-20T06:17:58.353Z,9.38
2016-07-20T06:18:28.372Z,9.12
2016-07-20T06:18:58.386Z,9.48
2016-07-20T06:19:28.405Z,9.01
2016-07-20T06:19:58.417Z,10.27
2016-07-20T06:20:28.434Z,9.27
2016-07-20T06:20:58.450Z,9.88
2016-07-20T06:21:28.468Z,9.83
2016-07-20T06:21:58.481Z,9.74
2016-07-20T06:22:28.496Z,9.29
2016-07-20T06:22:58.512Z,9.48
2016-07-20T06:23:28.528Z,9.51
2016-07-20T06:23:58.545Z,10.04
2016-07-20T06:24:28.563Z,9.71
2016-07-20T06:24:58.578Z,10.38
2016-07-20T06:25:28.594Z,9.65
2016-07-20T06:25:58.608Z,10.63
2016-07-20T06:26:28.623Z,9.81
2016-07-20T06:26:58.642Z,10.09
2016-07-20T06:27:28.656Z,11.04
2016-07-20T06:27:58.675Z,10.11
2016-07-20T06:28:28.686Z,10.78
2016-07-20T06:28:58.702Z,9.93
2016-07-20T06:29:28.722Z,10.1
2016-07-20T06:29:58.737Z,10.08
2016-07-20T06:30:28.753Z,11
2016-07-20T06:30:58.770Z,10.67
2016-07-20T06:31:28.789Z,10.06
2016-07-20T06:31:58.802Z,10.62
2016-07-20T06:32:28.817Z,10.6
2016-07-20T06:32:58.832Z,11.1
2016-07-20T06:33:28.849Z,11.26
2016-07-20T06:33:58.864Z,11.39
2016-07-20T06:34:28.884Z,10.62
2016-07-20T06:34:58.897Z,10.92
2016-07-20T06:35:28.914Z,10.94
2016-07-20T06:35:58.930Z,11.36
2016-07-20T06:36:28.948Z,11.7
2016-07-20T06:36:58.962Z,59.85
2016-07-20T06:37:28.978Z,61.62
2016-07-20T06:37:58.993Z,63.82
2016-07-20T06:38:29.012Z,36.37
2016-07-20T06:38:59.027Z,37.04
2016-07-20T06:39:29.042Z,38.73
2016-07-20T06:39:59.060Z,40.78